YZR weather

Chris Hadfield Airport
Sarnia, Ontario, Canada

Public forecast

Using degrees Celsius for public forecast. Weather courtesy of forecast.io.

METAR (pilot weather report)

Retrieved 2019/03/25 05:00 UTC (13 minutes ago):

CYZR 250500Z AUTO 01017KT 9SM FEW055 M00/M03 A3016 RMK SLP220

TAF (pilot weather forecast)

Forecast is more than 6 hours old.

Retrieved 2019/03/24 20:00 UTC (9 hours ago):

TAF CYZR 241938Z 2420/2502 20010KT P6SM BKN150 FM250000 01012KT P6SM SCT025 BKN120 TEMPO 2500/2502 OVC025 BECMG 2500/2502 01012G22KT RMK FCST BASED ON AUTO OBS. NXT FCST WILL BE ISSUED AT 250745Z